createdAt,value
2023-12-09T00:00:02.217Z,29.66
2023-12-09T00:03:06.861Z,29.79
2023-12-09T00:06:10.969Z,29.67
2023-12-09T00:09:15.425Z,30.25
2023-12-09T00:12:18.984Z,29.82
2023-12-09T00:15:23.677Z,29.52
2023-12-09T00:18:27.119Z,29.62
2023-12-09T00:21:30.540Z,29.73
2023-12-09T00:24:33.781Z,29.56
2023-12-09T00:27:37.230Z,30.02
2023-12-09T00:30:41.767Z,29.43
2023-12-09T00:33:45.162Z,30.10
2023-12-09T00:36:48.429Z,29.86
2023-12-09T00:39:51.649Z,29.72
2023-12-09T00:42:54.912Z,29.80
2023-12-09T00:45:59.561Z,29.57
2023-12-09T00:49:02.852Z,29.30
2023-12-09T00:52:07.733Z,29.22
2023-12-09T00:55:12.656Z,29.84
2023-12-09T00:58:17.458Z,29.32
2023-12-09T01:01:22.039Z,29.31
2023-12-09T01:04:25.498Z,29.24
2023-12-09T01:07:28.872Z,29.47
2023-12-09T01:10:32.004Z,29.48
2023-12-09T01:13:35.212Z,29.48
2023-12-09T01:16:39.828Z,29.59
2023-12-09T01:19:43.160Z,29.52
2023-12-09T01:22:48.911Z,29.85
2023-12-09T01:25:52.094Z,29.77
2023-12-09T01:28:57.831Z,29.28
2023-12-09T01:32:02.389Z,29.26
2023-12-09T01:35:06.967Z,29.61
2023-12-09T01:38:10.702Z,29.48
2023-12-09T01:41:13.911Z,29.73
2023-12-09T01:44:18.583Z,29.56
2023-12-09T01:47:24.326Z,29.51
2023-12-09T01:50:28.522Z,29.75
2023-12-09T01:53:32.290Z,29.52
2023-12-09T01:56:35.523Z,29.77
2023-12-09T01:59:39.253Z,29.21
2023-12-09T02:02:43.822Z,29.77
2023-12-09T02:05:46.932Z,29.77
2023-12-09T02:08:50.868Z,29.35
2023-12-09T02:12:00.476Z,29.34
2023-12-09T02:15:08.764Z,29.40
2023-12-09T02:18:14.688Z,29.56
2023-12-09T02:21:18.701Z,29.43
2023-12-09T02:24:23.358Z,29.16
2023-12-09T02:27:33.750Z,29.54
2023-12-09T02:30:47.128Z,29.43
2023-12-09T02:33:51.101Z,29.19
2023-12-09T02:36:55.229Z,29.09
2023-12-09T02:40:02.056Z,29.52
2023-12-09T02:43:06.397Z,29.62
2023-12-09T02:46:13.696Z,29.37
2023-12-09T02:49:17.124Z,29.28
2023-12-09T02:52:20.665Z,29.42
2023-12-09T02:55:25.383Z,29.44
2023-12-09T02:58:28.623Z,29.04
2023-12-09T03:01:31.718Z,29.35
2023-12-09T03:04:35.383Z,29.18
2023-12-09T03:07:38.611Z,28.91
2023-12-09T03:10:43.189Z,29.09
2023-12-09T03:13:46.459Z,29.11
2023-12-09T03:16:49.639Z,29.15
2023-12-09T03:19:52.996Z,29.28
2023-12-09T03:22:56.184Z,29.10
2023-12-09T03:26:00.726Z,28.89
2023-12-09T03:29:03.902Z,29.21
2023-12-09T03:32:07.213Z,28.79
2023-12-09T03:35:13.603Z,28.91
2023-12-09T03:38:16.751Z,29.00
2023-12-09T03:41:24.591Z,29.05
2023-12-09T03:44:29.027Z,28.85
2023-12-09T03:47:32.521Z,29.05
2023-12-09T03:50:35.616Z,29.12
2023-12-09T03:53:38.777Z,29.00
2023-12-09T03:56:43.364Z,28.78
2023-12-09T03:59:46.547Z,28.93
2023-12-09T04:02:49.691Z,28.68
2023-12-09T04:05:52.953Z,28.82
2023-12-09T04:08:56.198Z,28.77
2023-12-09T04:12:01.529Z,28.90
2023-12-09T04:15:05.183Z,28.67
2023-12-09T04:18:08.903Z,28.56
2023-12-09T04:21:12.163Z,28.77
2023-12-09T04:24:15.481Z,28.47
2023-12-09T04:27:20.315Z,28.71
2023-12-09T04:30:24.341Z,28.74
2023-12-09T04:33:27.466Z,28.60
2023-12-09T04:36:30.999Z,28.47
2023-12-09T04:39:34.327Z,28.65
2023-12-09T04:42:39.303Z,28.66
2023-12-09T04:45:42.530Z,28.68
2023-12-09T04:48:45.998Z,28.32
2023-12-09T04:51:49.351Z,28.00
2023-12-09T04:54:52.563Z,28.46
2023-12-09T04:57:58.668Z,28.33
2023-12-09T05:01:03.295Z,28.50
2023-12-09T05:04:06.670Z,28.60
2023-12-09T05:07:09.964Z,28.67
2023-12-09T05:10:13.664Z,28.56
2023-12-09T05:13:18.491Z,28.32
2023-12-09T05:16:21.605Z,28.28
2023-12-09T05:19:25.908Z,28.32
2023-12-09T05:22:29.298Z,28.43
2023-12-09T05:25:32.543Z,28.42
2023-12-09T05:28:37.402Z,28.06
2023-12-09T05:31:42.027Z,28.51
2023-12-09T05:34:45.309Z,28.12
2023-12-09T05:37:48.812Z,28.52
2023-12-09T05:40:51.991Z,28.06
2023-12-09T05:43:56.719Z,27.89
2023-12-09T05:46:59.873Z,28.25
2023-12-09T05:50:02.997Z,27.93
2023-12-09T05:53:06.180Z,27.90
2023-12-09T05:56:12.117Z,28.48
2023-12-09T05:59:16.991Z,28.01
2023-12-09T06:02:20.128Z,28.16
2023-12-09T06:05:26.584Z,28.12
2023-12-09T06:08:29.787Z,28.02
2023-12-09T06:11:33.256Z,28.56
2023-12-09T06:14:37.837Z,29.28
2023-12-09T06:17:40.955Z,30.32
2023-12-09T06:20:44.131Z,29.83
2023-12-09T06:23:49.108Z,29.90
2023-12-09T06:26:52.192Z,29.86
2023-12-09T06:29:56.872Z,29.82
2023-12-09T06:33:02.134Z,30.18
2023-12-09T06:36:06.079Z,30.31
2023-12-09T06:39:10.375Z,29.90
2023-12-09T06:42:13.698Z,30.31
2023-12-09T06:45:18.764Z,30.30
2023-12-09T06:48:22.987Z,30.47
2023-12-09T06:51:26.839Z,30.09
2023-12-09T06:54:29.956Z,30.20
2023-12-09T06:57:33.135Z,30.20
2023-12-09T07:00:38.755Z,30.43
2023-12-09T07:03:42.625Z,30.42
2023-12-09T07:06:45.912Z,30.71
2023-12-09T07:09:51.451Z,30.29
2023-12-09T07:12:54.738Z,30.83
2023-12-09T07:16:00.123Z,30.78
2023-12-09T07:19:03.725Z,30.64
2023-12-09T07:22:07.045Z,30.94
2023-12-09T07:25:10.696Z,30.90
2023-12-09T07:28:14.596Z,30.90
2023-12-09T07:31:20.137Z,30.74
2023-12-09T07:34:23.514Z,31.23
2023-12-09T07:37:27.186Z,31.35
2023-12-09T07:40:30.630Z,30.90
2023-12-09T07:43:34.149Z,30.98
2023-12-09T07:46:38.726Z,31.41
2023-12-09T07:49:44.052Z,31.25
2023-12-09T07:52:47.317Z,31.22
2023-12-09T07:55:50.445Z,31.29
2023-12-09T07:58:54.682Z,31.53
2023-12-09T08:01:59.266Z,31.41
2023-12-09T08:05:03.194Z,31.45
2023-12-09T08:08:07.820Z,31.09
2023-12-09T08:11:13.241Z,31.32
2023-12-09T08:14:16.442Z,31.33
2023-12-09T08:17:21.114Z,31.64
2023-12-09T08:20:24.501Z,31.09
2023-12-09T08:23:27.883Z,31.20
2023-12-09T08:26:31.576Z,31.10
2023-12-09T08:29:37.434Z,31.49
2023-12-09T08:32:43.124Z,31.33
2023-12-09T08:35:47.729Z,30.89
2023-12-09T08:38:53.138Z,31.19
2023-12-09T08:41:56.446Z,31.08
2023-12-09T08:44:59.758Z,31.33
2023-12-09T08:48:08.251Z,31.35
2023-12-09T08:51:11.658Z,31.25
2023-12-09T08:54:15.982Z,31.01
2023-12-09T08:57:20.020Z,31.10
2023-12-09T09:00:27.511Z,30.99
2023-12-09T09:03:32.170Z,31.33
2023-12-09T09:06:35.340Z,30.81
2023-12-09T09:09:40.962Z,31.08
2023-12-09T09:12:45.569Z,31.01
2023-12-09T09:15:51.311Z,31.09
2023-12-09T09:18:56.311Z,31.31
2023-12-09T09:22:00.657Z,30.58
2023-12-09T09:25:04.139Z,31.09
2023-12-09T09:28:08.152Z,31.17
2023-12-09T09:31:13.134Z,30.88
2023-12-09T09:34:17.764Z,31.21
2023-12-09T09:37:22.683Z,31.50
2023-12-09T09:40:26.013Z,30.91
2023-12-09T09:43:33.245Z,31.32
2023-12-09T09:46:40.288Z,31.35
2023-12-09T09:49:49.231Z,31.41
2023-12-09T09:52:55.196Z,31.28
2023-12-09T09:55:59.876Z,30.96
2023-12-09T09:59:04.876Z,31.12
2023-12-09T10:02:09.170Z,31.68
2023-12-09T10:05:14.277Z,31.80
2023-12-09T10:08:17.414Z,32.12
2023-12-09T10:11:20.562Z,31.97
2023-12-09T10:14:24.475Z,32.24
2023-12-09T10:17:28.476Z,32.52
2023-12-09T10:20:35.974Z,32.51
2023-12-09T10:23:39.370Z,31.95
2023-12-09T10:26:44.176Z,32.22
2023-12-09T10:29:48.088Z,32.69
2023-12-09T10:32:53.344Z,32.96
2023-12-09T10:35:58.983Z,33.03
2023-12-09T10:39:02.372Z,32.73
2023-12-09T10:42:06.532Z,30.31
2023-12-09T10:45:12.708Z,30.80
2023-12-09T10:48:16.479Z,30.39
2023-12-09T10:51:21.464Z,29.90
2023-12-09T10:54:25.047Z,29.75
2023-12-09T10:57:30.177Z,29.75
2023-12-09T11:00:37.753Z,29.53
2023-12-09T11:03:41.685Z,29.84
2023-12-09T11:06:48.565Z,29.59
2023-12-09T11:09:52.120Z,29.46
2023-12-09T11:12:55.625Z,29.00
2023-12-09T11:16:12.343Z,28.97
2023-12-09T11:19:18.267Z,29.09
2023-12-09T11:22:23.572Z,28.90
2023-12-09T11:25:29.056Z,29.18
2023-12-09T11:28:32.618Z,28.81
2023-12-09T11:31:40.896Z,29.41
2023-12-09T11:34:44.509Z,28.92
2023-12-09T11:37:51.538Z,29.04
2023-12-09T11:40:55.684Z,29.69
2023-12-09T11:44:00.248Z,29.30
2023-12-09T11:47:06.009Z,29.03
2023-12-09T11:50:10.307Z,29.29
2023-12-09T11:53:15.072Z,29.55
2023-12-09T11:56:18.637Z,30.12
2023-12-09T11:59:21.821Z,29.77
2023-12-09T12:02:25.295Z,29.99
2023-12-09T12:05:31.594Z,30.35
2023-12-09T12:08:36.667Z,30.16
2023-12-09T12:11:41.811Z,30.95
2023-12-09T12:14:45.143Z,30.92
2023-12-09T12:17:49.724Z,31.12
2023-12-09T12:20:53.165Z,31.09
2023-12-09T12:23:57.981Z,31.44
2023-12-09T12:27:01.614Z,31.47
2023-12-09T12:30:05.623Z,31.75
2023-12-09T12:33:09.066Z,31.52
2023-12-09T12:36:13.149Z,31.90
2023-12-09T12:39:18.591Z,31.65
2023-12-09T12:42:22.108Z,31.81
2023-12-09T12:45:28.569Z,32.43
2023-12-09T12:48:32.806Z,32.14
2023-12-09T12:51:36.558Z,31.84
2023-12-09T12:54:41.581Z,31.89
2023-12-09T12:57:45.579Z,32.34
2023-12-09T13:00:50.899Z,31.96
2023-12-09T13:03:54.713Z,31.80
2023-12-09T13:06:58.228Z,32.18
2023-12-09T13:10:06.471Z,32.37
2023-12-09T13:13:09.858Z,32.15
2023-12-09T13:16:13.150Z,32.06
2023-12-09T13:19:16.980Z,32.07
2023-12-09T13:22:20.232Z,31.92
2023-12-09T13:25:25.004Z,31.57
2023-12-09T13:28:28.952Z,31.39
2023-12-09T13:31:32.732Z,31.73
2023-12-09T13:34:37.023Z,31.30
2023-12-09T13:37:40.579Z,31.36
2023-12-09T13:40:47.661Z,31.65
2023-12-09T13:43:52.145Z,31.42
2023-12-09T13:46:55.357Z,31.15
2023-12-09T13:49:58.602Z,30.97
2023-12-09T13:53:02.382Z,31.23
2023-12-09T13:56:08.322Z,31.65
2023-12-09T13:59:11.616Z,31.40
2023-12-09T14:02:14.949Z,31.16
2023-12-09T14:05:18.498Z,31.36
2023-12-09T14:08:22.287Z,31.66
2023-12-09T14:11:28.628Z,31.66
2023-12-09T14:14:32.727Z,31.48
2023-12-09T14:17:36.217Z,31.42
2023-12-09T14:20:39.445Z,31.22
2023-12-09T14:23:43.141Z,31.56
2023-12-09T14:26:49.281Z,31.47
2023-12-09T14:29:52.877Z,31.55
2023-12-09T14:32:56.155Z,31.52
2023-12-09T14:35:59.460Z,31.56
2023-12-09T14:39:07.843Z,31.73
2023-12-09T14:42:12.742Z,31.60
2023-12-09T14:45:16.326Z,31.76
2023-12-09T14:48:20.292Z,31.62
2023-12-09T14:51:36.989Z,31.78
2023-12-09T14:54:46.476Z,31.70
2023-12-09T14:57:51.663Z,31.53
2023-12-09T15:00:55.465Z,31.57
2023-12-09T15:03:59.906Z,31.89
2023-12-09T15:07:03.696Z,31.42
2023-12-09T15:10:08.164Z,31.35
2023-12-09T15:13:12.931Z,31.43
2023-12-09T15:16:16.374Z,31.21
2023-12-09T15:19:19.953Z,31.52
2023-12-09T15:22:23.939Z,31.39
2023-12-09T15:25:27.194Z,31.42
2023-12-09T15:28:32.019Z,31.35
2023-12-09T15:31:35.340Z,31.57
2023-12-09T15:34:39.647Z,31.49
2023-12-09T15:37:45.066Z,30.95
2023-12-09T15:40:48.458Z,30.71
2023-12-09T15:43:53.509Z,31.08
2023-12-09T15:46:57.549Z,31.18
2023-12-09T15:50:02.015Z,31.18
2023-12-09T15:53:05.493Z,31.25
2023-12-09T15:56:10.400Z,31.03
2023-12-09T15:59:15.235Z,31.26
2023-12-09T16:02:18.602Z,30.98
2023-12-09T16:14:19.067Z,30.49
2023-12-09T16:17:22.672Z,29.87
2023-12-09T16:20:26.005Z,30.17
2023-12-09T16:23:29.401Z,30.98
2023-12-09T16:26:34.875Z,30.30
2023-12-09T16:29:40.447Z,30.24
2023-12-09T16:32:43.841Z,30.21
2023-12-09T16:35:47.222Z,29.86
2023-12-09T16:38:50.438Z,29.78
2023-12-09T16:41:53.823Z,29.71
2023-12-09T16:44:59.151Z,29.64
2023-12-09T16:48:03.387Z,30.75
2023-12-09T16:51:07.229Z,30.59
2023-12-09T16:54:11.243Z,30.38
2023-12-09T16:57:17.102Z,30.66
2023-12-09T17:00:22.297Z,29.88
2023-12-09T17:03:26.138Z,29.34
2023-12-09T17:06:29.481Z,29.25
2023-12-09T17:09:33.802Z,29.27
2023-12-09T17:12:40.579Z,29.11
2023-12-09T17:15:47.250Z,29.19
2023-12-09T17:18:51.157Z,29.33
2023-12-09T17:21:54.527Z,29.29
2023-12-09T17:24:57.852Z,29.37
2023-12-09T17:28:01.203Z,29.02
2023-12-09T17:31:06.607Z,29.23
2023-12-09T17:34:11.744Z,29.69
2023-12-09T17:37:15.859Z,29.93
2023-12-09T17:40:19.755Z,29.93
2023-12-09T17:43:23.849Z,30.08
2023-12-09T17:46:29.243Z,30.23
2023-12-09T17:49:32.946Z,29.24
2023-12-09T17:52:38.475Z,29.29
2023-12-09T17:55:43.207Z,29.49
2023-12-09T17:58:49.255Z,29.25
2023-12-09T18:01:54.327Z,29.01
2023-12-09T18:04:58.027Z,28.91
2023-12-09T18:08:04.943Z,29.20
2023-12-09T18:11:08.668Z,29.05
2023-12-09T18:14:12.300Z,28.88
2023-12-09T18:17:17.203Z,29.00
2023-12-09T18:20:20.677Z,28.86
2023-12-09T18:23:24.156Z,29.98
2023-12-09T18:26:27.812Z,29.22
2023-12-09T18:29:31.620Z,28.69
2023-12-09T18:32:39.802Z,28.43
2023-12-09T18:35:43.647Z,28.81
2023-12-09T18:38:46.883Z,28.50
2023-12-09T18:41:50.109Z,28.07
2023-12-09T18:44:53.864Z,28.02
2023-12-09T18:47:58.723Z,28.04
2023-12-09T18:51:04.844Z,28.74
2023-12-09T18:54:08.906Z,28.88
2023-12-09T18:57:14.460Z,28.74
2023-12-09T19:00:17.888Z,28.59
2023-12-09T19:03:23.309Z,29.24
2023-12-09T19:06:26.729Z,29.12
2023-12-09T19:09:30.163Z,28.98
2023-12-09T19:12:33.534Z,28.99
2023-12-09T19:15:36.993Z,29.63
2023-12-09T19:18:41.869Z,29.61
2023-12-09T19:21:45.340Z,29.18
2023-12-09T19:24:49.023Z,29.69
2023-12-09T19:27:52.255Z,29.81
2023-12-09T19:30:55.564Z,29.99
2023-12-09T19:34:01.867Z,30.16
2023-12-09T19:37:05.690Z,29.77
2023-12-09T19:40:11.674Z,29.75
2023-12-09T19:43:17.775Z,30.20
2023-12-09T19:46:21.009Z,30.10
2023-12-09T19:49:26.155Z,30.29
2023-12-09T19:52:30.485Z,30.42
2023-12-09T19:55:37.669Z,30.15
2023-12-09T19:58:41.152Z,30.15
2023-12-09T20:01:44.469Z,30.09
2023-12-09T20:04:49.750Z,30.51
2023-12-09T20:07:53.111Z,30.40
2023-12-09T20:10:57.810Z,30.83
2023-12-09T20:14:01.112Z,30.77
2023-12-09T20:17:07.125Z,30.84
2023-12-09T20:20:12.988Z,31.00
2023-12-09T20:23:16.454Z,30.90
2023-12-09T20:26:19.793Z,31.16
2023-12-09T20:29:23.309Z,30.92
2023-12-09T20:32:27.132Z,30.75
2023-12-09T20:35:32.324Z,31.32
2023-12-09T20:38:36.261Z,30.77
2023-12-09T20:41:39.998Z,31.04
2023-12-09T20:44:44.562Z,31.32
2023-12-09T20:47:48.375Z,31.35
2023-12-09T20:50:54.621Z,31.15
2023-12-09T20:53:58.041Z,31.31
2023-12-09T20:57:03.292Z,31.38
2023-12-09T21:00:09.775Z,31.15
2023-12-09T21:03:13.324Z,31.07
2023-12-09T21:06:18.314Z,30.77
2023-12-09T21:09:23.703Z,31.06
2023-12-09T21:12:27.101Z,31.14
2023-12-09T21:15:30.542Z,31.00
2023-12-09T21:18:33.975Z,30.72
2023-12-09T21:21:38.553Z,31.15
2023-12-09T21:24:41.954Z,31.19
2023-12-09T21:27:45.618Z,30.79
2023-12-09T21:30:48.990Z,31.17
2023-12-09T21:33:53.397Z,30.71
2023-12-09T21:36:58.009Z,30.71
2023-12-09T21:40:01.612Z,30.85
2023-12-09T21:43:05.476Z,30.81
2023-12-09T21:46:08.627Z,30.46
2023-12-09T21:49:12.071Z,30.55
2023-12-09T21:52:16.882Z,30.85
2023-12-09T21:55:21.087Z,30.77
2023-12-09T21:58:24.378Z,30.88
2023-12-09T22:01:27.494Z,31.23
2023-12-09T22:04:30.681Z,31.05
2023-12-09T22:07:35.349Z,30.82
2023-12-09T22:10:38.980Z,30.75
2023-12-09T22:13:42.728Z,30.61
2023-12-09T22:16:46.186Z,30.59
2023-12-09T22:19:49.299Z,30.75
2023-12-09T22:22:55.706Z,30.33
2023-12-09T22:25:59.379Z,30.82
2023-12-09T22:29:02.666Z,30.33
2023-12-09T22:32:06.535Z,30.26
2023-12-09T22:35:10.396Z,30.16
2023-12-09T22:38:15.313Z,30.22
2023-12-09T22:41:22.749Z,30.42
2023-12-09T22:44:25.875Z,30.62
2023-12-09T22:47:30.167Z,30.32
2023-12-09T22:50:33.431Z,30.22
2023-12-09T22:53:37.960Z,29.96
2023-12-09T22:56:41.139Z,30.09
2023-12-09T22:59:45.518Z,30.12
2023-12-09T23:02:48.664Z,30.00
2023-12-09T23:05:51.756Z,30.04
2023-12-09T23:08:56.331Z,29.96
2023-12-09T23:11:59.590Z,29.79
2023-12-09T23:15:02.881Z,30.24
2023-12-09T23:18:06.312Z,29.78
2023-12-09T23:21:10.210Z,29.75
2023-12-09T23:24:14.994Z,29.90
2023-12-09T23:27:18.152Z,29.52
2023-12-09T23:30:21.382Z,29.92
2023-12-09T23:33:24.817Z,29.74
2023-12-09T23:36:28.172Z,29.95
2023-12-09T23:39:32.890Z,30.05
2023-12-09T23:42:36.151Z,29.84
2023-12-09T23:45:39.518Z,30.05
2023-12-09T23:48:42.842Z,29.74
2023-12-09T23:51:46.040Z,29.54
2023-12-09T23:54:50.623Z,29.63
2023-12-09T23:57:53.842Z,29.56
